createdAt,value
2023-05-18T00:00:45.588Z,2.75
2023-05-18T00:05:47.331Z,2.50
2023-05-18T00:10:49.092Z,2.58
2023-05-18T00:15:50.874Z,2.47
2023-05-18T00:20:59.075Z,2.78
2023-05-18T00:26:01.969Z,2.72
2023-05-18T00:31:03.805Z,3.13
2023-05-18T00:36:05.871Z,3.30
2023-05-18T00:41:07.561Z,3.13
2023-05-18T00:46:09.344Z,2.95
2023-05-18T00:51:12.054Z,2.95
2023-05-18T00:56:15.106Z,2.55
2023-05-18T01:01:17.825Z,2.63
2023-05-18T01:06:19.542Z,2.40
2023-05-18T01:11:33.320Z,2.92
2023-05-18T01:16:45.186Z,3.00
2023-05-18T01:22:24.910Z,1.92
2023-05-18T01:27:27.105Z,2.30
2023-05-18T01:32:29.011Z,2.33
2023-05-18T01:37:32.237Z,2.55
2023-05-18T01:42:39.726Z,2.38
2023-05-18T01:47:45.716Z,3.35
2023-05-18T01:52:53.118Z,2.90
2023-05-18T01:57:55.173Z,3.33
2023-05-18T02:02:57.023Z,3.25
2023-05-18T02:07:58.755Z,2.25
2023-05-18T02:13:00.452Z,3.20
2023-05-18T02:18:02.957Z,2.65
2023-05-18T02:23:06.783Z,3.22
2023-05-18T02:28:08.825Z,3.30
2023-05-18T02:33:11.197Z,3.45
2023-05-18T02:38:12.918Z,3.53
2023-05-18T02:43:14.717Z,3.65
2023-05-18T02:48:16.392Z,3.30
2023-05-18T02:53:18.182Z,3.33
2023-05-18T02:58:23.002Z,3.97
2023-05-18T03:03:42.404Z,3.42
2023-05-18T03:08:44.411Z,4.13
2023-05-18T03:13:48.768Z,3.78
2023-05-18T03:18:50.546Z,3.75
2023-05-18T03:23:52.781Z,4.20
2023-05-18T03:28:54.513Z,3.80
2023-05-18T03:33:56.401Z,3.67
2023-05-18T03:38:58.504Z,4.05
2023-05-18T03:44:02.251Z,3.28
2023-05-18T03:49:07.784Z,3.72
2023-05-18T03:54:14.223Z,4.90
2023-05-18T03:59:15.893Z,4.72
2023-05-18T04:04:23.492Z,3.60
2023-05-18T04:09:25.530Z,3.55
2023-05-18T04:14:28.250Z,4.00
2023-05-18T04:19:30.119Z,3.97
2023-05-18T04:24:32.850Z,3.85
2023-05-18T04:29:34.592Z,3.58
2023-05-18T04:34:37.391Z,4.53
2023-05-18T04:39:39.722Z,4.43
2023-05-18T04:44:45.550Z,3.80
2023-05-18T04:49:49.184Z,3.95
2023-05-18T04:54:51.321Z,3.80
2023-05-18T04:59:53.356Z,3.83
2023-05-18T05:04:56.990Z,3.75
2023-05-18T05:09:58.854Z,3.28
2023-05-18T05:15:00.566Z,3.67
2023-05-18T05:20:02.298Z,4.35
2023-05-18T05:25:06.078Z,3.88
2023-05-18T05:30:09.530Z,4.30
2023-05-18T05:35:12.590Z,4.78
2023-05-18T05:40:14.381Z,5.82
2023-05-18T05:45:19.170Z,5.50
2023-05-18T05:50:24.156Z,6.80
2023-05-18T05:55:28.520Z,5.50
2023-05-18T06:00:30.838Z,3.72
2023-05-18T06:05:36.153Z,3.78
2023-05-18T06:10:41.316Z,3.50
2023-05-18T06:15:43.689Z,3.55
2023-05-18T06:20:45.691Z,3.70
2023-05-18T06:25:50.296Z,2.38
2023-05-18T06:30:59.331Z,2.80
2023-05-18T06:36:10.102Z,1.98
2023-05-18T06:41:11.854Z,2.05
2023-05-18T06:46:21.847Z,1.65
2023-05-18T06:51:26.332Z,2.50
2023-05-18T06:56:29.992Z,2.95
2023-05-18T07:01:32.090Z,2.05
2023-05-18T07:06:36.671Z,2.25
2023-05-18T07:11:40.437Z,1.92
2023-05-18T07:16:44.091Z,2.28
2023-05-18T07:21:45.751Z,1.55
2023-05-18T07:26:47.412Z,2.00
2023-05-18T07:31:49.113Z,1.70
2023-05-18T07:36:51.113Z,2.47
2023-05-18T07:41:52.768Z,1.88
2023-05-18T07:46:54.522Z,1.75
2023-05-18T07:51:56.325Z,1.70
2023-05-18T07:57:00.350Z,1.80
2023-05-18T08:02:02.502Z,1.27
2023-05-18T08:07:05.140Z,2.20
2023-05-18T08:12:07.194Z,1.33
2023-05-18T08:17:08.896Z,1.23
2023-05-18T08:22:11.385Z,1.95
2023-05-18T08:27:13.157Z,1.48
2023-05-18T08:32:14.957Z,2.03
2023-05-18T08:37:16.792Z,1.67
2023-05-18T08:42:48.536Z,1.33
2023-05-18T08:47:56.067Z,1.27
2023-05-18T08:53:01.733Z,1.52
2023-05-18T08:58:09.247Z,1.42
2023-05-18T09:03:11.518Z,2.25
2023-05-18T09:08:13.697Z,2.20
2023-05-18T09:13:22.670Z,1.58
2023-05-18T09:18:26.807Z,1.80
2023-05-18T09:23:30.735Z,1.58
2023-05-18T09:28:42.963Z,1.98
2023-05-18T09:33:46.449Z,1.50
2023-05-18T09:38:48.191Z,1.70
2023-05-18T09:43:51.483Z,1.98
2023-05-18T09:48:55.136Z,1.30
2023-05-18T09:53:58.331Z,1.90
2023-05-18T09:59:08.485Z,1.63
2023-05-18T10:04:10.175Z,1.58
2023-05-18T10:09:15.747Z,1.75
2023-05-18T10:14:28.212Z,1.55
2023-05-18T10:19:35.033Z,1.55
2023-05-18T10:24:43.396Z,2.17
2023-05-18T10:29:46.564Z,1.92
2023-05-18T10:34:49.127Z,1.42
2023-05-18T10:39:56.010Z,1.58
2023-05-18T10:44:58.281Z,1.55
2023-05-18T10:50:01.507Z,1.42
2023-05-18T10:55:04.621Z,2.35
2023-05-18T11:00:09.530Z,2.10
2023-05-18T11:05:12.432Z,1.50
2023-05-18T11:10:14.237Z,1.63
2023-05-18T11:15:19.053Z,1.45
2023-05-18T11:20:25.630Z,1.58
2023-05-18T11:25:27.245Z,1.50
2023-05-18T11:30:36.573Z,1.20
2023-05-18T11:35:58.451Z,1.52
2023-05-18T11:41:00.909Z,1.73
2023-05-18T11:46:02.678Z,1.98
2023-05-18T11:51:09.405Z,1.52
2023-05-18T11:56:12.960Z,1.83
2023-05-18T12:01:15.058Z,1.85
2023-05-18T12:06:16.971Z,1.25
2023-05-18T12:11:18.710Z,1.80
2023-05-18T12:16:22.092Z,1.20
2023-05-18T12:21:24.988Z,1.23
2023-05-18T12:26:28.609Z,1.38
2023-05-18T12:31:31.042Z,1.23
2023-05-18T12:36:33.797Z,1.40
2023-05-18T12:41:35.496Z,1.42
2023-05-18T12:46:37.336Z,1.67
2023-05-18T12:51:39.780Z,1.50
2023-05-18T12:56:51.735Z,1.20
2023-05-18T13:01:56.941Z,1.40
2023-05-18T13:06:58.897Z,1.55
2023-05-18T13:12:07.874Z,0.90
2023-05-18T13:17:09.911Z,1.73
2023-05-18T13:22:11.644Z,1.40
2023-05-18T13:27:13.303Z,1.80
2023-05-18T13:32:14.956Z,1.38
2023-05-18T13:37:16.603Z,1.48
2023-05-18T13:42:21.212Z,1.67
2023-05-18T13:47:22.862Z,1.42
2023-05-18T13:52:24.521Z,1.25
2023-05-18T13:57:30.832Z,1.40
2023-05-18T14:02:32.580Z,1.55
2023-05-18T14:07:38.602Z,1.02
2023-05-18T14:12:42.725Z,1.73
2023-05-18T14:17:44.594Z,1.38
2023-05-18T14:22:46.471Z,2.03
2023-05-18T14:27:48.173Z,1.40
2023-05-18T14:32:49.907Z,1.55
2023-05-18T14:37:51.601Z,1.50
2023-05-18T14:42:53.898Z,1.40
2023-05-18T14:47:55.940Z,1.17
2023-05-18T14:52:57.634Z,1.27
2023-05-18T14:58:02.316Z,1.73
2023-05-18T15:03:04.201Z,1.55
2023-05-18T15:08:06.083Z,1.08
2023-05-18T15:13:07.861Z,1.60
2023-05-18T15:18:09.534Z,1.88
2023-05-18T15:23:11.319Z,1.45
2023-05-18T15:28:13.795Z,1.60
2023-05-18T15:33:16.053Z,1.45
2023-05-18T15:38:17.784Z,1.52
2023-05-18T15:43:20.307Z,1.48
2023-05-18T15:48:22.068Z,1.52
2023-05-18T15:53:23.889Z,1.55
2023-05-18T15:58:25.576Z,1.65
2023-05-18T16:03:27.372Z,2.38
2023-05-18T16:08:30.299Z,2.30
2023-05-18T16:13:33.231Z,2.33
2023-05-18T16:18:34.956Z,2.13
2023-05-18T16:23:36.649Z,2.00
2023-05-18T16:28:38.808Z,2.33
2023-05-18T16:33:40.710Z,1.42
2023-05-18T16:38:42.401Z,1.52
2023-05-18T16:43:44.335Z,1.77
2023-05-18T16:48:46.156Z,1.90
2023-05-18T16:53:48.163Z,1.65
2023-05-18T16:58:52.399Z,1.98
2023-05-18T17:03:54.184Z,1.15
2023-05-18T17:08:58.750Z,1.80
2023-05-18T17:14:01.611Z,1.92
2023-05-18T17:19:03.344Z,1.98
2023-05-18T17:24:05.265Z,1.85
2023-05-18T17:29:07.191Z,1.45
2023-05-18T17:34:08.843Z,1.52
2023-05-18T17:39:10.544Z,1.92
2023-05-18T17:44:16.574Z,1.30
2023-05-18T17:49:18.346Z,1.83
2023-05-18T17:54:20.061Z,1.60
2023-05-18T17:59:21.797Z,1.35
2023-05-18T18:04:23.667Z,2.25
2023-05-18T18:09:25.360Z,2.13
2023-05-18T18:14:27.038Z,2.13
2023-05-18T18:19:28.728Z,2.35
2023-05-18T18:24:30.427Z,1.70
2023-05-18T18:29:32.126Z,1.80
2023-05-18T18:34:33.789Z,2.72
2023-05-18T18:39:35.913Z,1.63
2023-05-18T18:44:37.590Z,1.73
2023-05-18T18:49:39.234Z,2.22
2023-05-18T18:54:41.112Z,2.33
2023-05-18T18:59:42.813Z,2.33
2023-05-18T19:04:44.501Z,1.83
2023-05-18T19:09:46.324Z,2.38
2023-05-18T19:14:48.092Z,2.88
2023-05-18T19:19:49.859Z,2.15
2023-05-18T19:24:51.797Z,2.50
2023-05-18T19:29:53.519Z,2.30
2023-05-18T19:34:55.209Z,2.20
2023-05-18T19:39:56.866Z,2.22
2023-05-18T19:44:58.510Z,2.28
2023-05-18T19:50:00.200Z,2.55
2023-05-18T19:55:02.469Z,2.70
2023-05-18T20:00:05.667Z,2.50
2023-05-18T20:05:18.872Z,5.35
2023-05-18T20:10:20.738Z,3.17
2023-05-18T20:15:22.515Z,3.72
2023-05-18T20:20:30.497Z,3.35
2023-05-18T20:25:35.238Z,4.72
2023-05-18T20:30:37.159Z,6.35
2023-05-18T20:35:39.307Z,3.92
2023-05-18T20:40:41.644Z,2.95
2023-05-18T20:45:46.515Z,2.92
2023-05-18T20:50:48.300Z,3.80
2023-05-18T20:55:50.392Z,3.42
2023-05-18T21:00:52.243Z,3.90
2023-05-18T21:05:54.067Z,4.07
2023-05-18T21:10:56.369Z,5.00
2023-05-18T21:15:59.358Z,4.25
2023-05-18T21:21:02.146Z,3.05
2023-05-18T21:26:03.963Z,3.17
2023-05-18T21:31:05.900Z,3.05
2023-05-18T21:36:09.981Z,2.97
2023-05-18T21:41:11.714Z,4.95
2023-05-18T21:46:13.402Z,3.10
2023-05-18T21:51:15.684Z,3.55
2023-05-18T21:56:17.940Z,3.88
2023-05-18T22:01:21.396Z,3.55
2023-05-18T22:06:23.462Z,4.05
2023-05-18T22:11:25.110Z,3.00
2023-05-18T22:16:26.934Z,3.25
2023-05-18T22:21:28.588Z,4.35
2023-05-18T22:26:30.414Z,4.10
2023-05-18T22:31:32.825Z,3.70
2023-05-18T22:36:35.191Z,3.80
2023-05-18T22:41:36.858Z,3.60
2023-05-18T22:46:38.815Z,3.33
2023-05-18T22:51:40.884Z,4.47
2023-05-18T22:56:42.602Z,3.58
2023-05-18T23:01:44.280Z,2.75
2023-05-18T23:06:48.812Z,3.30
2023-05-18T23:11:52.458Z,4.07
2023-05-18T23:16:58.432Z,3.78
2023-05-18T23:22:00.135Z,3.13
2023-05-18T23:27:01.792Z,3.55
2023-05-18T23:32:03.621Z,4.28
2023-05-18T23:37:11.821Z,3.38
2023-05-18T23:42:14.899Z,3.20
2023-05-18T23:47:16.953Z,3.08
2023-05-18T23:52:21.376Z,3.45
2023-05-18T23:57:24.067Z,3.25
